Time;durP1;ratioP1;P1;durP2;ratioP2;P2;SDS_P1;SDS_P2;PMS_P1;PMS_P2;Temp;Humidity;BMP_temperature;BMP_pressure;BME280_temperature;BME280_humidity;BME280_pressure;Samples;Min_cycle;Max_cycle;Signal;HPM_P1;HPM_P2
2023/08/08 00:02:14;;;;;;;3.75;3.38;;;13.80;99.90;;;;;;4992591;28;20049;-76
2023/08/08 00:04:40;;;;;;;5.40;4.00;;;13.80;99.90;;;;;;4992347;28;20062;-77
2023/08/08 00:07:06;;;;;;;4.22;3.63;;;13.80;99.90;;;;;;4993033;28;20022;-79
2023/08/08 00:09:32;;;;;;;4.88;3.67;;;13.80;99.90;;;;;;5007180;28;20034;-77
2023/08/08 00:11:58;;;;;;;4.97;3.33;;;13.80;99.90;;;;;;4992787;28;20077;-77
2023/08/08 00:14:24;;;;;;;5.65;3.67;;;13.80;99.90;;;;;;4992935;28;20074;-77
2023/08/08 00:16:50;;;;;;;6.07;4.47;;;13.80;99.90;;;;;;4991960;28;20082;-76
2023/08/08 00:19:16;;;;;;;4.30;3.20;;;13.90;99.90;;;;;;4992643;28;20100;-78
2023/08/08 00:21:41;;;;;;;5.75;3.42;;;13.90;99.90;;;;;;4991996;28;20068;-78
2023/08/08 00:24:07;;;;;;;5.35;3.10;;;13.90;99.90;;;;;;4993066;28;20033;-77
2023/08/08 00:26:33;;;;;;;4.55;3.15;;;14.00;99.90;;;;;;4992034;28;20463;-78
2023/08/08 00:28:59;;;;;;;8.15;3.45;;;13.90;99.90;;;;;;4992727;28;20049;-77
2023/08/08 00:31:25;;;;;;;3.60;3.22;;;14.00;99.90;;;;;;4993616;28;20019;-76
2023/08/08 00:33:51;;;;;;;3.97;3.33;;;14.00;99.90;;;;;;4991801;28;20049;-77
2023/08/08 00:36:16;;;;;;;5.38;3.35;;;14.10;99.90;;;;;;4992116;28;20075;-77
2023/08/08 00:38:42;;;;;;;4.95;3.17;;;14.10;99.90;;;;;;4991253;28;20050;-77
2023/08/08 00:41:08;;;;;;;5.53;3.08;;;14.10;99.90;;;;;;4992150;28;20133;-77
2023/08/08 00:43:33;;;;;;;5.05;2.40;;;14.20;99.90;;;;;;4991872;28;20092;-77
2023/08/08 00:45:59;;;;;;;4.35;2.60;;;14.20;99.90;;;;;;4992445;28;20033;-77
2023/08/08 00:48:25;;;;;;;2.95;2.65;;;14.20;99.90;;;;;;4992389;28;20298;-77
2023/08/08 00:50:52;;;;;;;5.22;3.05;;;14.20;99.90;;;;;;4991529;28;20022;-77
2023/08/08 00:53:19;;;;;;;5.15;3.00;;;14.20;99.90;;;;;;4991875;28;20479;-76
2023/08/08 00:55:46;;;;;;;4.97;2.97;;;14.30;99.90;;;;;;4990114;28;20117;-76
2023/08/08 00:58:12;;;;;;;4.22;3.10;;;14.30;99.90;;;;;;4992086;28;20054;-76
2023/08/08 01:00:38;;;;;;;4.85;3.10;;;14.30;99.90;;;;;;4992117;28;20034;-76
2023/08/08 01:03:04;;;;;;;5.63;3.30;;;14.40;99.90;;;;;;4990877;28;20030;-76
2023/08/08 01:05:45;;;;;;;3.30;2.58;;;14.30;99.90;;;;;;4992812;28;20041;-75
2023/08/08 01:08:16;;;;;;;7.40;3.08;;;14.30;99.90;;;;;;4991898;28;20391;-76
2023/08/08 01:10:42;;;;;;;4.72;2.47;;;14.30;99.90;;;;;;4991200;28;20121;-76
2023/08/08 01:13:23;;;;;;;3.47;2.67;;;14.30;99.90;;;;;;4991558;28;20088;-77
2023/08/08 01:15:49;;;;;;;4.95;3.05;;;14.30;99.90;;;;;;4991316;28;20034;-76
2023/08/08 01:18:16;;;;;;;4.00;2.88;;;14.30;99.90;;;;;;4992184;28;20152;-76
2023/08/08 01:20:45;;;;;;;3.75;3.10;;;14.30;99.90;;;;;;4991214;28;20066;-75
2023/08/08 01:23:32;;;;;;;4.93;3.00;;;14.30;99.90;;;;;;4991578;28;20034;-76
2023/08/08 01:25:59;;;;;;;3.70;2.97;;;14.40;99.90;;;;;;4991417;28;20026;-76
2023/08/08 01:28:25;;;;;;;5.20;3.72;;;14.40;99.90;;;;;;4991456;28;20125;-76
2023/08/08 01:30:51;;;;;;;4.80;3.80;;;14.40;99.90;;;;;;4991001;28;20023;-75
2023/08/08 01:33:17;;;;;;;3.67;2.80;;;14.40;99.90;;;;;;5006531;28;20041;-76
2023/08/08 01:35:51;;;;;;;3.40;3.10;;;14.40;99.90;;;;;;4991172;28;20436;-76
2023/08/08 01:38:23;;;;;;;4.75;3.13;;;14.40;99.90;;;;;;4992253;28;20042;-76
2023/08/08 01:40:49;;;;;;;4.23;3.00;;;14.40;99.90;;;;;;4991097;28;20145;-77
2023/08/08 01:43:16;;;;;;;4.75;3.08;;;14.40;99.90;;;;;;4991498;28;20034;-76
2023/08/08 01:45:43;;;;;;;3.97;2.78;;;14.40;99.90;;;;;;4991172;28;20104;-76
2023/08/08 01:48:10;;;;;;;4.20;2.88;;;14.40;99.90;;;;;;4991246;28;20483;-77
2023/08/08 01:50:37;;;;;;;5.95;3.10;;;14.30;99.90;;;;;;4990965;28;20109;-77
2023/08/08 01:53:03;;;;;;;3.63;2.78;;;14.40;99.90;;;;;;4990609;28;20555;-77
2023/08/08 01:55:30;;;;;;;4.38;3.25;;;14.40;99.90;;;;;;4991320;28;20494;-76
2023/08/08 01:57:56;;;;;;;4.78;2.80;;;14.30;99.90;;;;;;4990150;28;20031;-77
2023/08/08 02:00:22;;;;;;;4.45;3.45;;;14.30;99.90;;;;;;4991241;28;20034;-77
2023/08/08 02:02:48;;;;;;;4.82;3.00;;;14.30;99.90;;;;;;4990681;28;20042;-77
2023/08/08 02:05:14;;;;;;;7.22;3.58;;;14.30;99.90;;;;;;4990892;28;20045;-77
2023/08/08 02:07:39;;;;;;;5.38;3.47;;;14.30;99.90;;;;;;5005570;28;20456;-77
2023/08/08 02:10:06;;;;;;;3.97;3.30;;;14.30;99.90;;;;;;4990963;28;20057;-77
2023/08/08 02:12:32;;;;;;;7.47;3.35;;;14.30;99.90;;;;;;4990811;28;20026;-77
2023/08/08 02:14:57;;;;;;;5.20;3.45;;;14.30;99.90;;;;;;4990665;28;20567;-77
2023/08/08 02:17:26;;;;;;;4.90;2.92;;;14.30;99.90;;;;;;4991179;28;20026;-77
2023/08/08 02:19:52;;;;;;;5.63;2.78;;;14.30;99.90;;;;;;4990337;28;20164;-77
2023/08/08 02:22:18;;;;;;;4.75;2.80;;;14.30;99.90;;;;;;4991520;28;20034;-77
2023/08/08 02:24:44;;;;;;;4.45;3.00;;;14.30;99.90;;;;;;4994088;28;20116;-77
2023/08/08 02:27:11;;;;;;;5.47;3.83;;;14.30;99.90;;;;;;4994964;28;20062;-76
2023/08/08 02:29:36;;;;;;;4.60;2.72;;;14.20;99.90;;;;;;4993161;28;20033;-76
2023/08/08 02:32:02;;;;;;;5.75;3.22;;;14.20;99.90;;;;;;4993028;28;20030;-77
2023/08/08 02:34:28;;;;;;;3.53;3.20;;;14.20;99.90;;;;;;4994514;28;20068;-77
2023/08/08 02:36:54;;;;;;;6.63;3.42;;;14.20;99.90;;;;;;4994292;28;20054;-77
2023/08/08 02:39:19;;;;;;;4.30;3.03;;;14.20;99.90;;;;;;4994695;28;20100;-77
2023/08/08 02:41:45;;;;;;;6.05;3.28;;;14.20;99.90;;;;;;4993977;28;20030;-77
2023/08/08 02:44:11;;;;;;;8.70;3.55;;;14.20;99.90;;;;;;4994550;28;20534;-76
2023/08/08 02:46:37;;;;;;;4.00;3.03;;;14.30;99.90;;;;;;4994650;28;20109;-76
2023/08/08 02:49:04;;;;;;;5.82;3.60;;;14.20;99.90;;;;;;4993980;28;20073;-77
2023/08/08 02:51:30;;;;;;;6.45;3.50;;;14.30;99.90;;;;;;4994730;28;20026;-77
2023/08/08 02:53:56;;;;;;;6.72;3.28;;;14.20;99.90;;;;;;4993808;28;20042;-77
2023/08/08 02:56:22;;;;;;;3.08;2.88;;;14.30;99.90;;;;;;4994505;28;20034;-77
2023/08/08 02:58:47;;;;;;;3.40;3.10;;;14.30;99.90;;;;;;4993627;28;20041;-77
2023/08/08 03:01:15;;;;;;;3.70;2.80;;;14.30;99.90;;;;;;4994278;28;20336;-77
2023/08/08 03:03:41;;;;;;;5.72;2.65;;;14.30;99.90;;;;;;4994432;28;20023;-77
2023/08/08 03:06:07;;;;;;;4.57;2.72;;;14.30;99.90;;;;;;4993480;28;20022;-77
2023/08/08 03:08:33;;;;;;;3.38;2.83;;;14.30;99.90;;;;;;4994425;28;20383;-77
2023/08/08 03:10:58;;;;;;;5.95;3.42;;;14.30;99.90;;;;;;4993407;28;20027;-77
2023/08/08 03:13:24;;;;;;;7.03;3.75;;;14.20;99.90;;;;;;4992410;28;20041;-77
2023/08/08 03:15:50;;;;;;;4.97;3.50;;;14.20;99.90;;;;;;4993621;28;20098;-77
2023/08/08 03:18:16;;;;;;;3.78;2.97;;;14.20;99.90;;;;;;4994030;28;20409;-77
2023/08/08 03:20:41;;;;;;;3.65;3.15;;;14.20;99.90;;;;;;4993920;28;20038;-77
2023/08/08 03:23:07;;;;;;;5.22;3.40;;;14.20;99.90;;;;;;4993063;28;20037;-77
2023/08/08 03:25:33;;;;;;;5.38;3.55;;;14.20;99.90;;;;;;4993262;28;20468;-76
2023/08/08 03:27:58;;;;;;;7.47;4.03;;;14.10;99.90;;;;;;4993289;28;20038;-77
2023/08/08 03:30:24;;;;;;;6.10;3.90;;;14.10;99.90;;;;;;4994005;28;20030;-77
2023/08/08 03:32:50;;;;;;;5.82;3.40;;;14.10;99.90;;;;;;4993192;28;20098;-76
2023/08/08 03:35:16;;;;;;;3.92;3.30;;;14.10;99.90;;;;;;4992893;28;20031;-77
2023/08/08 03:37:42;;;;;;;5.70;3.53;;;14.00;99.90;;;;;;4993388;28;20065;-76
2023/08/08 03:40:08;;;;;;;4.95;3.60;;;14.00;99.90;;;;;;4992615;28;20041;-76
2023/08/08 03:42:34;;;;;;;3.95;2.90;;;14.10;99.90;;;;;;4993621;28;20061;-76
2023/08/08 03:45:00;;;;;;;5.53;3.20;;;14.10;99.90;;;;;;4992848;28;20014;-77
2023/08/08 03:47:26;;;;;;;6.40;3.42;;;14.10;99.90;;;;;;4993301;28;20022;-77
2023/08/08 03:49:55;;;;;;;4.88;3.70;;;14.10;99.90;;;;;;4992388;28;20178;-77
2023/08/08 03:52:21;;;;;;;3.72;3.17;;;14.10;99.90;;;;;;4993213;28;20211;-76
2023/08/08 03:54:46;;;;;;;5.18;3.38;;;14.00;99.90;;;;;;4991124;28;20041;-77
2023/08/08 03:57:12;;;;;;;5.80;3.60;;;14.00;99.90;;;;;;4993080;28;20030;-76
2023/08/08 03:59:38;;;;;;;3.83;3.38;;;14.00;99.90;;;;;;4993071;28;20054;-77
2023/08/08 04:02:04;;;;;;;4.57;3.50;;;14.00;99.90;;;;;;4992364;28;20139;-76
2023/08/08 04:04:30;;;;;;;5.13;3.20;;;14.00;99.90;;;;;;4992717;28;20031;-77
2023/08/08 04:06:56;;;;;;;5.57;3.78;;;13.90;99.90;;;;;;4992575;28;20054;-76
2023/08/08 04:09:21;;;;;;;5.30;3.47;;;13.90;99.90;;;;;;4992904;28;20031;-76
2023/08/08 04:11:47;;;;;;;5.05;3.50;;;13.90;99.90;;;;;;4992410;28;20057;-77
2023/08/08 04:14:13;;;;;;;6.50;3.50;;;13.90;99.90;;;;;;4993197;28;20370;-77
2023/08/08 04:16:39;;;;;;;5.90;3.53;;;13.80;99.90;;;;;;4975738;28;20038;-76
2023/08/08 04:19:05;;;;;;;5.47;3.67;;;13.70;99.90;;;;;;4972803;28;20029;-76
2023/08/08 04:21:32;;;;;;;5.82;3.80;;;13.70;99.90;;;;;;4973276;28;20026;-76
2023/08/08 04:23:58;;;;;;;4.78;3.70;;;13.70;99.90;;;;;;4972737;28;20027;-76
2023/08/08 04:26:24;;;;;;;5.30;3.72;;;13.60;99.90;;;;;;4971949;28;20124;-76
2023/08/08 04:28:50;;;;;;;5.22;3.80;;;13.60;99.90;;;;;;4972793;28;20115;-77
2023/08/08 04:31:16;;;;;;;8.93;3.85;;;13.50;99.90;;;;;;4973484;28;20031;-76
2023/08/08 04:33:41;;;;;;;5.72;4.18;;;13.50;99.90;;;;;;4971822;28;20043;-77
2023/08/08 04:36:07;;;;;;;9.15;3.63;;;13.40;99.90;;;;;;4972231;28;20460;-76
2023/08/08 04:38:33;;;;;;;5.18;3.60;;;13.40;99.90;;;;;;4972964;28;20205;-77
2023/08/08 04:40:59;;;;;;;6.03;4.35;;;13.40;99.90;;;;;;4972334;28;20031;-76
2023/08/08 04:43:24;;;;;;;4.45;4.03;;;13.30;99.90;;;;;;4971566;28;20034;-76
2023/08/08 04:45:51;;;;;;;5.35;4.32;;;13.30;99.90;;;;;;4971521;28;20030;-77
2023/08/08 04:48:16;;;;;;;4.60;3.92;;;13.20;99.90;;;;;;4972930;28;20054;-76
2023/08/08 04:50:42;;;;;;;7.07;3.95;;;13.10;99.90;;;;;;4987778;28;20066;-77
2023/08/08 04:53:08;;;;;;;6.32;3.70;;;13.10;99.90;;;;;;4991672;28;20573;-76
2023/08/08 04:55:33;;;;;;;4.35;3.45;;;13.10;99.90;;;;;;4992740;28;20125;-76
2023/08/08 04:57:59;;;;;;;6.45;3.38;;;13.10;99.90;;;;;;4991946;28;20026;-76
2023/08/08 05:00:26;;;;;;;5.80;4.00;;;13.10;99.90;;;;;;4992647;28;20097;-76
2023/08/08 05:02:52;;;;;;;5.18;3.92;;;13.00;99.90;;;;;;4991457;28;20026;-77
2023/08/08 05:05:18;;;;;;;4.38;3.80;;;13.00;99.90;;;;;;4992254;28;20467;-76
2023/08/08 05:07:43;;;;;;;4.68;3.60;;;12.90;99.90;;;;;;4992321;28;20026;-76
2023/08/08 05:10:09;;;;;;;5.82;3.65;;;12.90;99.90;;;;;;4991596;28;20030;-76
2023/08/08 05:12:35;;;;;;;5.90;4.18;;;12.90;99.90;;;;;;4991703;28;20034;-76
2023/08/08 05:15:01;;;;;;;9.35;4.22;;;12.90;99.90;;;;;;4991741;28;20125;-76
2023/08/08 05:17:26;;;;;;;7.10;4.18;;;12.80;99.90;;;;;;4991866;28;20118;-77
2023/08/08 05:19:52;;;;;;;7.03;4.90;;;12.70;99.90;;;;;;4991409;28;20027;-77
2023/08/08 05:22:18;;;;;;;6.72;4.40;;;12.70;99.90;;;;;;4991416;28;20470;-76
2023/08/08 05:24:43;;;;;;;4.60;4.00;;;12.70;99.90;;;;;;4991349;28;20034;-76
2023/08/08 05:27:10;;;;;;;6.15;4.35;;;12.60;99.90;;;;;;4991002;28;20110;-76
2023/08/08 05:29:38;;;;;;;5.53;4.32;;;12.60;99.90;;;;;;4991802;28;20114;-76
2023/08/08 05:32:06;;;;;;;5.55;4.38;;;12.70;99.90;;;;;;4990807;28;20022;-76
2023/08/08 05:34:32;;;;;;;5.15;4.28;;;12.60;99.90;;;;;;4991417;28;20109;-76
2023/08/08 05:36:58;;;;;;;8.75;4.45;;;12.70;99.90;;;;;;4990674;28;20054;-76
2023/08/08 05:39:24;;;;;;;5.75;3.90;;;12.70;99.90;;;;;;4991463;28;20460;-76
2023/08/08 05:41:50;;;;;;;7.22;4.22;;;12.70;99.90;;;;;;4991358;28;20033;-76
2023/08/08 05:44:15;;;;;;;10.23;5.05;;;12.80;99.90;;;;;;4990680;28;20423;-76
2023/08/08 05:46:41;;;;;;;10.10;4.55;;;12.90;99.90;;;;;;5006417;28;20409;-76
2023/08/08 05:49:07;;;;;;;7.05;4.13;;;13.00;99.90;;;;;;4990765;28;20110;-76
2023/08/08 05:51:33;;;;;;;7.03;4.05;;;13.00;99.90;;;;;;4990629;28;20027;-76
2023/08/08 05:53:58;;;;;;;6.47;4.20;;;13.10;99.90;;;;;;4991087;28;20464;-76
2023/08/08 05:56:24;;;;;;;5.57;4.00;;;13.20;99.90;;;;;;4991203;28;20037;-76
2023/08/08 05:58:50;;;;;;;5.93;3.80;;;13.30;99.90;;;;;;4996932;28;20058;-75
2023/08/08 06:01:15;;;;;;;3.88;3.58;;;13.40;99.90;;;;;;4996883;28;20081;-75
2023/08/08 06:03:42;;;;;;;5.25;4.13;;;13.50;99.90;;;;;;4997565;28;20410;-75
2023/08/08 06:06:08;;;;;;;6.68;3.95;;;13.60;99.90;;;;;;4997092;28;20026;-75
2023/08/08 06:08:34;;;;;;;5.50;3.80;;;13.60;99.90;;;;;;4997595;28;20522;-76
2023/08/08 06:10:59;;;;;;;8.25;3.92;;;13.80;99.90;;;;;;4997053;28;20114;-76
2023/08/08 06:13:25;;;;;;;5.55;4.13;;;13.80;99.90;;;;;;4997559;28;20030;-76
2023/08/08 06:15:51;;;;;;;5.50;4.18;;;13.90;99.90;;;;;;4997603;28;20077;-76
2023/08/08 06:18:17;;;;;;;5.60;3.95;;;14.10;99.90;;;;;;4997002;28;20084;-76
2023/08/08 06:20:43;;;;;;;4.70;4.10;;;14.20;99.90;;;;;;4997580;28;20050;-76
2023/08/08 06:23:09;;;;;;;5.90;3.30;;;14.30;99.90;;;;;;4996766;28;20065;-76
2023/08/08 06:25:34;;;;;;;6.47;3.80;;;14.30;99.90;;;;;;4997577;28;20034;-77
2023/08/08 06:28:00;;;;;;;7.15;3.75;;;14.40;99.90;;;;;;4996711;28;20101;-77
2023/08/08 06:30:26;;;;;;;6.00;3.60;;;14.50;99.90;;;;;;4997268;28;20088;-76
2023/08/08 06:32:51;;;;;;;4.53;3.53;;;14.60;99.90;;;;;;4996679;28;20027;-77
2023/08/08 06:35:18;;;;;;;4.95;3.63;;;14.70;99.90;;;;;;4996430;28;20041;-75
2023/08/08 06:37:44;;;;;;;5.47;3.67;;;14.80;99.90;;;;;;4997001;28;20069;-75
2023/08/08 06:40:11;;;;;;;5.35;3.13;;;15.00;99.90;;;;;;4996720;28;20467;-75
2023/08/08 06:42:36;;;;;;;5.28;3.55;;;15.10;99.90;;;;;;4997119;28;20101;-75
2023/08/08 06:45:02;;;;;;;6.78;3.92;;;15.10;99.90;;;;;;4996521;28;20594;-75
2023/08/08 06:47:28;;;;;;;4.50;3.53;;;15.30;99.90;;;;;;4997013;28;20057;-74
2023/08/08 06:49:54;;;;;;;6.75;3.20;;;15.40;99.90;;;;;;4996947;28;20026;-75
2023/08/08 06:52:21;;;;;;;4.82;3.30;;;15.40;99.90;;;;;;4996557;28;20041;-75
2023/08/08 06:54:47;;;;;;;5.68;3.65;;;15.40;99.90;;;;;;4996926;28;20035;-75
2023/08/08 06:57:12;;;;;;;3.42;2.72;;;15.40;99.90;;;;;;5011329;28;20375;-75
2023/08/08 06:59:38;;;;;;;4.35;3.05;;;15.50;99.90;;;;;;5012584;28;20038;-75
2023/08/08 07:02:04;;;;;;;3.88;2.90;;;15.60;99.90;;;;;;4996565;28;20129;-75
2023/08/08 07:04:30;;;;;;;6.00;3.10;;;15.70;99.90;;;;;;4997352;28;20521;-75
2023/08/08 07:06:56;;;;;;;4.38;3.10;;;15.70;99.90;;;;;;4997117;28;20066;-75
2023/08/08 07:09:22;;;;;;;4.95;2.75;;;15.90;99.90;;;;;;4994167;28;20030;-76
2023/08/08 07:11:47;;;;;;;3.35;2.53;;;16.00;99.90;;;;;;4994214;28;20440;-76
2023/08/08 07:14:13;;;;;;;2.80;2.30;;;16.00;99.90;;;;;;4993712;28;20053;-76
2023/08/08 07:16:39;;;;;;;4.55;2.65;;;16.20;99.90;;;;;;4993898;28;20034;-76
2023/08/08 07:19:05;;;;;;;3.05;2.20;;;16.40;99.90;;;;;;4974487;28;20054;-77
2023/08/08 07:21:31;;;;;;;5.47;2.75;;;16.60;99.90;;;;;;4974090;28;20069;-76
2023/08/08 07:23:57;;;;;;;3.78;2.30;;;16.70;99.90;;;;;;4974471;28;20064;-76
2023/08/08 07:26:23;;;;;;;3.88;2.08;;;16.80;99.90;;;;;;4973665;28;20037;-76
2023/08/08 07:28:49;;;;;;;3.40;2.00;;;16.80;99.90;;;;;;4973912;28;20524;-75
2023/08/08 07:31:15;;;;;;;3.35;2.22;;;16.90;99.90;;;;;;4972758;28;20023;-76
2023/08/08 07:33:40;;;;;;;3.22;1.80;;;16.90;99.90;;;;;;4973986;28;20041;-77
2023/08/08 07:36:06;;;;;;;5.30;2.70;;;16.90;99.90;;;;;;4973567;28;20027;-75
2023/08/08 07:38:33;;;;;;;3.63;2.15;;;16.80;99.90;;;;;;4972777;28;20047;-76
2023/08/08 07:40:58;;;;;;;2.72;2.13;;;16.70;99.90;;;;;;4973343;28;20031;-76
2023/08/08 07:43:24;;;;;;;2.60;1.95;;;16.70;99.90;;;;;;4972899;28;20089;-75
2023/08/08 07:45:50;;;;;;;3.58;2.50;;;16.70;99.90;;;;;;4973448;28;20437;-76
2023/08/08 07:48:16;;;;;;;3.47;2.13;;;16.80;99.90;;;;;;4972532;28;20033;-76
2023/08/08 07:50:41;;;;;;;3.20;1.80;;;16.90;99.90;;;;;;4971645;28;20094;-77
2023/08/08 07:53:07;;;;;;;4.55;2.40;;;17.10;99.90;;;;;;4972473;28;20035;-77
2023/08/08 07:55:33;;;;;;;4.30;2.10;;;17.20;99.90;;;;;;4973112;28;20109;-77
2023/08/08 07:57:59;;;;;;;5.43;2.10;;;17.20;99.90;;;;;;4972781;28;20444;-76
2023/08/08 08:00:24;;;;;;;3.50;2.30;;;17.30;99.90;;;;;;4972776;28;20035;-76
2023/08/08 08:02:50;;;;;;;3.08;1.90;;;17.30;99.90;;;;;;4973082;28;20409;-76
2023/08/08 08:05:16;;;;;;;3.55;2.30;;;17.20;99.90;;;;;;4972718;28;20035;-77
2023/08/08 08:07:42;;;;;;;3.53;1.98;;;17.30;99.90;;;;;;4973158;28;20034;-76
2023/08/08 08:10:10;;;;;;;5.30;2.08;;;17.30;99.90;;;;;;4972533;28;20432;-77
2023/08/08 08:12:36;;;;;;;4.93;2.50;;;17.40;99.90;;;;;;4972814;28;20054;-75
2023/08/08 08:15:02;;;;;;;2.38;1.95;;;17.50;99.90;;;;;;4972396;28;20035;-77
2023/08/08 08:17:28;;;;;;;3.30;2.10;;;17.70;99.90;;;;;;4972540;28;20031;-75
2023/08/08 08:19:54;;;;;;;4.43;2.00;;;17.80;99.90;;;;;;4972750;28;20499;-75
2023/08/08 08:22:20;;;;;;;2.25;1.80;;;17.90;99.90;;;;;;4972214;28;20103;-75
2023/08/08 08:24:46;;;;;;;2.53;1.63;;;18.00;99.90;;;;;;4972702;28;20472;-75
2023/08/08 08:27:12;;;;;;;4.30;2.10;;;17.80;99.90;;;;;;4972434;28;20037;-76
2023/08/08 08:29:39;;;;;;;2.55;1.67;;;17.80;99.90;;;;;;4972578;28;20110;-76
2023/08/08 08:32:05;;;;;;;3.53;1.70;;;17.70;99.90;;;;;;4971825;28;20030;-76
2023/08/08 08:34:30;;;;;;;3.33;1.98;;;17.80;99.90;;;;;;4972245;28;20472;-76
2023/08/08 08:36:56;;;;;;;2.63;1.83;;;17.80;99.90;;;;;;4971027;28;20043;-77
2023/08/08 08:39:22;;;;;;;2.20;1.70;;;17.90;99.90;;;;;;4971794;28;20117;-75
2023/08/08 08:41:58;;;;;;;5.50;1.83;;;18.00;99.90;;;;;;4972600;28;20053;-76
2023/08/08 08:44:25;;;;;;;3.03;1.98;;;18.00;99.90;;;;;;4970852;28;20027;-75
2023/08/08 08:46:53;;;;;;;3.08;1.77;;;18.00;99.90;;;;;;4972348;28;20053;-76
2023/08/08 08:49:21;;;;;;;4.05;1.60;;;18.10;99.90;;;;;;4971935;28;20030;-75
2023/08/08 08:51:47;;;;;;;2.05;1.52;;;18.30;99.90;;;;;;4972332;28;20498;-76
2023/08/08 08:54:14;;;;;;;6.25;1.92;;;18.50;99.90;;;;;;4971282;28;20034;-77
2023/08/08 08:56:41;;;;;;;3.42;1.70;;;18.50;99.90;;;;;;4972321;28;20066;-77
2023/08/08 08:59:07;;;;;;;3.58;1.60;;;18.50;99.90;;;;;;4971444;28;20029;-76
2023/08/08 09:01:33;;;;;;;2.15;1.70;;;18.60;99.90;;;;;;4971933;28;20030;-76
2023/08/08 09:03:59;;;;;;;7.10;1.83;;;18.50;99.90;;;;;;4971980;28;20027;-76
2023/08/08 09:06:26;;;;;;;2.85;1.58;;;18.40;99.90;;;;;;4971375;28;20106;-76
2023/08/08 09:08:52;;;;;;;3.25;1.55;;;18.30;99.90;;;;;;4971067;28;20026;-77
2023/08/08 09:11:18;;;;;;;2.42;1.60;;;18.30;99.90;;;;;;4971742;28;20429;-77
2023/08/08 09:13:44;;;;;;;2.30;1.75;;;18.30;99.90;;;;;;4971711;28;20090;-77
2023/08/08 09:16:11;;;;;;;4.82;1.77;;;18.40;99.90;;;;;;4971146;28;20027;-77
2023/08/08 09:18:38;;;;;;;2.22;1.67;;;18.40;99.90;;;;;;4971720;28;20031;-77
2023/08/08 09:21:05;;;;;;;5.05;2.20;;;18.40;99.90;;;;;;4971214;28;20035;-77
2023/08/08 09:23:31;;;;;;;2.22;1.90;;;18.40;99.90;;;;;;4971494;28;20433;-77
2023/08/08 09:25:56;;;;;;;2.17;1.63;;;18.30;99.90;;;;;;4971775;28;20046;-77
2023/08/08 09:28:22;;;;;;;1.90;1.52;;;18.40;99.90;;;;;;4970749;28;20030;-77
2023/08/08 09:30:49;;;;;;;2.97;1.50;;;18.60;99.90;;;;;;4971359;28;20444;-77
2023/08/08 09:33:14;;;;;;;2.83;1.40;;;18.60;99.90;;;;;;4970336;28;20031;-77
2023/08/08 09:35:40;;;;;;;2.70;1.38;;;18.80;99.90;;;;;;4971232;28;20027;-77
2023/08/08 09:38:07;;;;;;;3.17;1.58;;;18.90;99.90;;;;;;4970636;28;20058;-76
2023/08/08 09:40:33;;;;;;;2.95;1.80;;;18.80;99.90;;;;;;4971469;28;20038;-78
2023/08/08 09:42:59;;;;;;;2.30;1.60;;;18.80;99.90;;;;;;4971369;28;20035;-77
2023/08/08 09:45:25;;;;;;;2.58;1.45;;;18.60;99.90;;;;;;4970929;28;20029;-77
2023/08/08 09:47:53;;;;;;;2.40;1.30;;;18.60;99.90;;;;;;4971311;28;20023;-77
2023/08/08 09:50:19;;;;;;;3.17;1.60;;;18.60;99.90;;;;;;4970675;28;20034;-76
2023/08/08 09:52:47;;;;;;;2.58;1.40;;;18.60;99.90;;;;;;4971229;28;20451;-77
2023/08/08 09:55:13;;;;;;;2.72;1.88;;;18.30;99.90;;;;;;4970927;28;20433;-76
2023/08/08 09:57:40;;;;;;;3.83;2.08;;;18.20;99.90;;;;;;4971685;28;20027;-77
2023/08/08 10:00:11;;;;;;;4.03;1.88;;;17.90;99.90;;;;;;4971088;28;20065;-78
2023/08/08 10:02:37;;;;;;;2.83;1.60;;;17.80;99.90;;;;;;4971468;28;20038;-76
2023/08/08 10:05:04;;;;;;;5.15;2.10;;;17.80;99.90;;;;;;4970733;28;20265;-78
2023/08/08 10:07:30;;;;;;;2.95;1.60;;;17.80;99.90;;;;;;4971356;28;20081;-77
2023/08/08 10:09:57;;;;;;;2.95;1.50;;;17.80;99.90;;;;;;4971428;28;20023;-78
2023/08/08 10:12:26;;;;;;;3.42;1.92;;;17.80;99.90;;;;;;4970631;28;20140;-78
2023/08/08 10:14:52;;;;;;;1.83;1.48;;;18.00;99.90;;;;;;4971247;28;20039;-78
2023/08/08 10:17:18;;;;;;;2.67;1.63;;;18.00;99.90;;;;;;4971289;28;20054;-77
2023/08/08 10:19:57;;;;;;;2.65;1.80;;;18.10;99.90;;;;;;4971016;28;20023;-76
2023/08/08 10:22:24;;;;;;;292.02;82.75;;;18.10;99.90;;;;;;4970271;28;20027;-77
2023/08/08 10:24:54;;;;;;;162.02;40.10;;;18.20;99.90;;;;;;4970789;28;20409;-78
2023/08/08 10:27:33;;;;;;;216.18;52.65;;;18.30;99.90;;;;;;4970565;28;20576;-77
2023/08/08 10:30:09;;;;;;;16.67;5.57;;;18.40;99.90;;;;;;4971032;28;20022;-77
2023/08/08 10:32:59;;;;;;;18.92;6.10;;;18.20;99.90;;;;;;4970819;28;20039;-76
2023/08/08 10:35:36;;;;;;;4.97;2.60;;;18.30;99.90;;;;;;4968513;28;20799;-76
2023/08/08 10:38:09;;;;;;;3.65;2.08;;;18.40;99.90;;;;;;4970734;28;20154;-77
2023/08/08 10:40:37;;;;;;;2.88;1.85;;;18.50;99.90;;;;;;4970663;28;20093;-76
2023/08/08 10:43:11;;;;;;;2.35;1.40;;;18.70;99.90;;;;;;4970348;28;20068;-77
2023/08/08 10:45:37;;;;;;;3.60;1.73;;;18.80;99.90;;;;;;4972973;28;20097;-77
2023/08/08 10:48:08;;;;;;;2.33;1.60;;;18.90;99.90;;;;;;4973665;28;20031;-78
2023/08/08 10:50:39;;;;;;;4.05;1.80;;;18.80;99.90;;;;;;4974394;28;20027;-77
2023/08/08 10:53:10;;;;;;;4.32;1.80;;;18.80;99.90;;;;;;4973447;28;20063;-77
2023/08/08 10:55:37;;;;;;;58.78;19.95;;;18.70;99.90;;;;;;4974007;28;20059;-77
2023/08/08 10:58:07;;;;;;;27.25;10.80;;;18.60;99.90;;;;;;4974058;28;20114;-78
2023/08/08 11:00:35;;;;;;;12.75;3.70;;;18.40;99.90;;;;;;4973965;28;20122;-77
2023/08/08 11:03:04;;;;;;;3.72;1.90;;;18.40;99.90;;;;;;4973801;28;20178;-77
2023/08/08 11:05:31;;;;;;;2.45;1.98;;;18.20;99.90;;;;;;4973701;28;20051;-78
2023/08/08 11:07:58;;;;;;;3.25;2.13;;;18.10;99.90;;;;;;4974230;28;20038;-76
2023/08/08 11:10:30;;;;;;;3.40;1.95;;;18.00;99.90;;;;;;4973359;28;20019;-77
2023/08/08 11:13:00;;;;;;;4.67;1.73;;;17.80;99.90;;;;;;4973828;28;20030;-77
2023/08/08 11:15:27;;;;;;;4.93;1.50;;;17.70;99.90;;;;;;4973305;28;20597;-77
2023/08/08 11:17:54;;;;;;;3.78;1.85;;;17.70;99.90;;;;;;4972425;28;20435;-77
2023/08/08 11:20:21;;;;;;;3.20;1.63;;;17.70;99.90;;;;;;4973166;28;20026;-76
2023/08/08 11:22:54;;;;;;;2.95;1.70;;;17.70;99.90;;;;;;4973426;28;20027;-77
2023/08/08 11:25:28;;;;;;;1.92;1.30;;;17.60;99.90;;;;;;4972877;28;20027;-76
2023/08/08 11:27:55;;;;;;;4.82;1.80;;;17.60;99.90;;;;;;4973650;28;20023;-77
2023/08/08 11:30:28;;;;;;;3.92;1.67;;;17.60;99.90;;;;;;4972872;28;20034;-77
2023/08/08 11:32:54;;;;;;;4.13;1.90;;;17.50;99.90;;;;;;4972122;28;20027;-76
2023/08/08 11:35:24;;;;;;;2.58;1.50;;;17.50;99.90;;;;;;4973056;28;20061;-76
2023/08/08 11:37:52;;;;;;;3.13;1.60;;;17.40;99.90;;;;;;4973169;28;20051;-76
2023/08/08 11:40:19;;;;;;;2.22;1.63;;;17.30;99.90;;;;;;4972817;28;20037;-76
2023/08/08 11:42:46;;;;;;;2.00;1.60;;;17.20;99.90;;;;;;4973175;28;20027;-77
2023/08/08 11:45:12;;;;;;;1.70;1.42;;;17.20;99.90;;;;;;4972879;28;20027;-77
2023/08/08 11:47:41;;;;;;;4.10;2.20;;;17.20;99.90;;;;;;4973345;28;20093;-76
2023/08/08 11:50:09;;;;;;;2.65;1.70;;;17.10;99.90;;;;;;4972475;28;20026;-76
2023/08/08 11:52:40;;;;;;;3.25;1.90;;;17.20;99.90;;;;;;4973285;28;20053;-76
2023/08/08 11:55:07;;;;;;;4.88;1.63;;;17.20;99.90;;;;;;4972202;28;20089;-77
2023/08/08 11:57:35;;;;;;;4.35;1.70;;;17.10;99.90;;;;;;4972722;28;20077;-77
2023/08/08 12:00:07;;;;;;;2.60;1.83;;;17.10;99.90;;;;;;4972779;28;20519;-77
2023/08/08 12:02:34;;;;;;;3.80;2.05;;;17.10;99.90;;;;;;4973749;28;20081;-77
2023/08/08 12:05:07;;;;;;;4.25;2.25;;;17.00;99.90;;;;;;4973525;28;20125;-77
2023/08/08 12:07:36;;;;;;;5.15;2.25;;;17.10;99.90;;;;;;4973566;28;20031;-76
2023/08/08 12:10:14;;;;;;;4.68;2.22;;;17.10;99.90;;;;;;4973783;28;20116;-78
2023/08/08 12:12:40;;;;;;;5.10;2.45;;;17.20;99.90;;;;;;4974174;28;20023;-77
2023/08/08 12:15:09;;;;;;;4.20;2.40;;;17.20;99.90;;;;;;4973241;28;20600;-77
2023/08/08 12:17:36;;;;;;;4.22;2.22;;;17.10;99.90;;;;;;4973593;28;20476;-77
2023/08/08 12:20:07;;;;;;;3.85;2.55;;;17.20;99.90;;;;;;4973447;28;20177;-77
2023/08/08 12:22:34;;;;;;;7.30;3.28;;;17.20;99.90;;;;;;4973600;28;20066;-77
2023/08/08 12:25:00;;;;;;;4.10;2.45;;;17.40;99.90;;;;;;4972009;28;20030;-77
2023/08/08 12:27:26;;;;;;;4.25;2.88;;;17.50;99.90;;;;;;4971648;28;20995;-77
2023/08/08 12:29:51;;;;;;;2.70;2.50;;;17.70;99.90;;;;;;4973643;28;20089;-77
2023/08/08 12:32:20;;;;;;;6.05;2.90;;;17.60;99.90;;;;;;4971572;28;20333;-77
2023/08/08 12:34:46;;;;;;;4.80;2.90;;;17.70;99.90;;;;;;4975742;28;20039;-77
2023/08/08 12:37:11;;;;;;;5.93;2.80;;;18.00;99.90;;;;;;4981784;28;20135;-77
2023/08/08 12:39:37;;;;;;;6.97;3.67;;;18.00;99.90;;;;;;4973567;28;20042;-77
2023/08/08 12:42:03;;;;;;;3.30;2.65;;;18.30;99.90;;;;;;4973245;28;20034;-77
2023/08/08 12:44:28;;;;;;;3.75;2.85;;;18.40;99.90;;;;;;4973469;28;20030;-78